Time;durP1;ratioP1;P1;durP2;ratioP2;P2;SDS_P1;SDS_P2;PMS_P1;PMS_P2;Temp;Humidity;BMP_temperature;BMP_pressure;BME280_temperature;BME280_humidity;BME280_pressure;Samples;Min_cycle;Max_cycle;Signal;HPM_P1;HPM_P2
2021/07/05 07:15:07;;;;;;;1.75;1.55;;;;;;;26.84;39.42;99896.41;5007931;28;20797;-38
2021/07/05 07:17:37;;;;;;;2.15;1.92;;;;;;;26.82;39.49;99901.13;5007610;28;20077;-39
2021/07/05 07:20:24;;;;;;;2.28;2.08;;;;;;;26.83;40.04;99892.06;5017825;28;20104;-38
2021/07/05 07:23:09;;;;;;;7.90;2.20;;;;;;;26.79;38.84;99884.56;5027301;28;20077;-35
2021/07/05 07:25:55;;;;;;;2.00;1.83;;;;;;;26.72;38.76;99894.38;5020059;28;20041;-37
2021/07/05 07:28:41;;;;;;;2.50;2.30;;;;;;;26.49;39.42;99894.50;5026962;28;20034;-39
2021/07/05 07:31:28;;;;;;;2.30;2.10;;;;;;;26.45;40.01;99898.53;5053339;28;20052;-43
2021/07/05 08:39:13;;;;;;;0.08;0.08;;;;;;;28.27;36.04;99891.84;5029919;28;20410;-68
2021/07/05 08:41:39;;;;;;;0.10;0.10;;;;;;;28.56;35.71;99886.22;5038371;28;20030;-67
2021/07/05 08:44:06;;;;;;;0.00;0.00;;;;;;;28.71;35.63;99892.31;5006591;28;20466;-68
2021/07/05 08:46:32;;;;;;;0.10;0.10;;;;;;;28.73;35.92;99886.75;5053182;28;20038;-66
2021/07/05 08:48:58;;;;;;;0.00;0.00;;;;;;;28.81;35.99;99886.56;5005382;28;20154;-67
2021/07/05 08:51:44;;;;;;;0.10;0.10;;;;;;;28.73;36.11;99889.44;5031570;28;20046;-66
2021/07/05 08:54:30;;;;;;;0.30;0.30;;;;;;;28.60;35.88;99865.16;5005200;28;20037;-66
2021/07/05 08:57:30;;;;;;;0.10;0.10;;;;;;;28.60;36.14;99865.97;5003764;28;20101;-66
2021/07/05 09:00:19;;;;;;;0.10;0.10;;;;;;;28.68;36.32;99883.81;5005983;28;20061;-66
2021/07/05 09:03:05;;;;;;;0.10;0.10;;;;;;;28.57;36.85;99866.34;5006885;28;20511;-65
2021/07/05 09:06:14;;;;;;;0.10;0.10;;;;;;;28.48;37.21;99870.25;5007019;28;20045;-65
2021/07/05 09:09:00;;;;;;;0.00;0.00;;;;;;;28.56;37.30;99858.50;5006832;28;20062;-66
2021/07/05 09:11:48;;;;;;;0.10;0.10;;;;;;;28.59;37.06;99856.25;5006985;28;20121;-66
2021/07/05 09:14:35;;;;;;;0.10;0.10;;;;;;;28.68;36.72;99856.94;5005827;28;20057;-64
2021/07/05 09:17:22;;;;;;;0.10;0.10;;;;;;;28.63;36.96;99887.06;5006478;28;20048;-65
2021/07/05 09:20:14;;;;;;;0.30;0.30;;;;;;;28.50;37.46;99873.56;5046989;28;20050;-65
2021/07/05 09:23:13;;;;;;;0.00;0.00;;;;;;;28.40;37.51;99865.84;5006911;28;20360;-66
2021/07/05 09:25:59;;;;;;;0.00;0.00;;;;;;;28.42;37.56;99873.75;5007032;28;20539;-65
2021/07/05 09:28:45;;;;;;;0.15;0.15;;;;;;;28.50;37.40;99853.94;5005397;28;20529;-65
2021/07/05 09:31:35;;;;;;;0.10;0.10;;;;;;;28.54;37.66;99872.13;5047133;28;20153;-65
2021/07/05 09:34:27;;;;;;;0.00;0.00;;;;;;;28.59;37.42;99864.31;5006172;28;20046;-64
2021/07/05 09:37:15;;;;;;;0.10;0.10;;;;;;;28.64;37.36;99877.13;5031757;28;20571;-65
2021/07/05 09:40:01;;;;;;;0.00;0.00;;;;;;;28.66;37.48;99886.72;5006211;28;20527;-67
2021/07/05 09:42:50;;;;;;;0.10;0.10;;;;;;;28.62;37.52;99874.66;5006385;28;20072;-65
2021/07/05 09:45:37;;;;;;;0.10;0.10;;;;;;;28.68;37.41;99870.38;4991912;28;20109;-65
2021/07/05 09:48:24;;;;;;;0.17;0.17;;;;;;;28.69;37.74;99870.19;5004588;28;20046;-66
2021/07/05 09:51:10;;;;;;;0.10;0.10;;;;;;;28.72;37.79;99860.88;4992897;28;20046;-66
2021/07/05 09:53:57;;;;;;;0.10;0.10;;;;;;;28.70;37.46;99861.06;4992795;28;20042;-64
2021/07/05 09:56:43;;;;;;;0.00;0.00;;;;;;;28.70;37.68;99871.00;4991722;28;20073;-65
2021/07/05 09:59:29;;;;;;;0.00;0.00;;;;;;;28.69;38.00;99859.44;5019223;28;20579;-66
2021/07/05 10:02:15;;;;;;;0.30;0.30;;;;;;;28.71;37.96;99868.13;4992663;28;20423;-65
2021/07/05 10:05:14;;;;;;;0.10;0.10;;;;;;;28.70;37.85;99855.69;4992896;28;20042;-64
2021/07/05 10:08:08;;;;;;;0.00;0.00;;;;;;;28.69;37.47;99855.91;4992563;28;20136;-65
2021/07/05 10:11:03;;;;;;;0.00;0.00;;;;;;;28.68;37.56;99857.78;4992447;28;20532;-64
2021/07/05 10:13:49;;;;;;;0.10;0.10;;;;;;;28.64;37.62;99867.22;4978267;28;20328;-65
2021/07/05 10:16:35;;;;;;;0.10;0.10;;;;;;;28.60;37.76;99852.53;4992777;28;20586;-65
2021/07/05 10:19:20;;;;;;;0.00;0.00;;;;;;;28.65;37.77;99851.94;4992346;28;20050;-64
2021/07/05 10:22:06;;;;;;;0.10;0.10;;;;;;;28.68;37.71;99852.41;4992318;28;20128;-65
2021/07/05 10:24:53;;;;;;;0.00;0.00;;;;;;;28.63;37.61;99868.25;4991362;28;20070;-65
2021/07/05 10:27:39;;;;;;;0.10;0.10;;;;;;;28.62;37.39;99871.16;5005013;28;20050;-66
2021/07/05 10:30:25;;;;;;;0.10;0.10;;;;;;;28.55;37.73;99889.09;5018619;28;20112;-66
2021/07/05 10:33:11;;;;;;;0.03;0.03;;;;;;;28.39;37.51;99874.97;4992193;28;20049;-67
2021/07/05 10:35:57;;;;;;;0.10;0.10;;;;;;;28.33;37.40;99877.63;4992243;28;20046;-65
2021/07/05 10:38:49;;;;;;;0.10;0.10;;;;;;;28.29;37.94;99873.66;5004508;28;20141;-65
2021/07/05 10:41:39;;;;;;;0.10;0.10;;;;;;;28.32;37.78;99859.84;5004755;28;20133;-65
2021/07/05 10:44:44;;;;;;;0.10;0.10;;;;;;;28.25;37.41;99859.78;4991983;28;20503;-66
2021/07/05 10:47:59;;;;;;;0.20;0.20;;;;;;;28.25;37.44;99864.34;4990978;28;20089;-65
2021/07/05 10:50:50;;;;;;;0.13;0.13;;;;;;;28.24;37.39;99860.00;4991624;28;20125;-66
2021/07/05 10:53:36;;;;;;;0.00;0.00;;;;;;;28.28;37.52;99872.00;4991944;28;20046;-64
2021/07/05 10:56:29;;;;;;;0.32;0.32;;;;;;;28.31;37.28;99880.47;4991651;28;20105;-66
2021/07/05 10:59:15;;;;;;;0.10;0.10;;;;;;;28.37;37.62;99865.47;4991510;28;20042;-65
2021/07/05 11:02:01;;;;;;;0.10;0.10;;;;;;;28.34;37.05;99872.03;4990698;28;20641;-65
2021/07/05 11:04:50;;;;;;;0.03;0.03;;;;;;;28.41;37.39;99878.28;4990597;28;20069;-64
2021/07/05 11:07:44;;;;;;;0.10;0.10;;;;;;;28.47;37.46;99882.00;4990492;28;20056;-65
2021/07/05 11:10:31;;;;;;;0.00;0.00;;;;;;;28.43;37.20;99864.66;4991332;28;20079;-66
2021/07/05 11:13:17;;;;;;;0.10;0.10;;;;;;;28.41;37.32;99851.41;4991297;28;20050;-66
2021/07/05 11:16:03;;;;;;;2.75;0.50;;;;;;;28.53;37.33;99862.44;4990564;28;20077;-66
2021/07/05 11:18:49;;;;;;;0.10;0.10;;;;;;;28.53;37.30;99859.75;4990269;28;20050;-66
2021/07/05 11:21:38;;;;;;;0.10;0.10;;;;;;;28.52;37.21;99863.47;4991686;28;20400;-66
2021/07/05 11:24:38;;;;;;;0.10;0.10;;;;;;;28.43;37.21;99827.03;4991167;28;20046;-65
2021/07/05 11:27:26;;;;;;;;;;;;;;;28.48;37.20;99845.22;4991577;28;20049;-65
2021/07/05 11:30:23;;;;;;;0.10;0.10;;;;;;;28.47;37.22;99838.22;4990976;28;20061;-66
2021/07/05 11:33:09;;;;;;;0.10;0.10;;;;;;;28.42;37.55;99844.19;4991016;28;20039;-67
2021/07/05 11:35:55;;;;;;;0.10;0.10;;;;;;;28.42;37.34;99852.25;4991072;28;20057;-66
2021/07/05 11:38:42;;;;;;;0.20;0.20;;;;;;;28.37;37.47;99849.34;4991046;28;20057;-65
2021/07/05 11:41:28;;;;;;;0.10;0.10;;;;;;;28.31;37.80;99856.31;5017081;28;20054;-66
2021/07/05 11:44:15;;;;;;;0.10;0.10;;;;;;;28.34;37.73;99825.53;4990697;28;20117;-66
2021/07/05 11:47:01;;;;;;;0.10;0.10;;;;;;;28.39;37.51;99828.47;4976568;28;20061;-65
2021/07/05 11:49:47;;;;;;;0.10;0.10;;;;;;;28.38;37.43;99819.56;4990868;28;20058;-65
2021/07/05 11:52:33;;;;;;;0.10;0.10;;;;;;;28.38;37.40;99837.53;4990742;28;20086;-65
2021/07/05 11:55:23;;;;;;;0.10;0.10;;;;;;;28.33;37.34;99831.94;4989671;28;20041;-65
2021/07/05 11:58:09;;;;;;;;;;;;;;;28.34;37.80;99833.59;4990979;28;20054;-67
2021/07/05 12:00:55;;;;;;;0.10;0.10;;;;;;;28.29;37.78;99817.25;5017110;28;19921;-65
2021/07/05 12:03:54;;;;;;;0.20;0.20;;;;;;;28.29;37.49;99836.06;4991194;28;20482;-66
2021/07/05 12:06:48;;;;;;;0.00;0.00;;;;;;;28.28;37.50;99821.78;4990927;28;20412;-67
2021/07/05 12:09:34;;;;;;;0.00;0.00;;;;;;;28.32;37.46;99820.38;4989489;28;20050;-66
2021/07/05 12:12:21;;;;;;;0.10;0.10;;;;;;;28.31;37.21;99825.94;4989202;28;20038;-66
2021/07/05 12:15:07;;;;;;;0.10;0.10;;;;;;;28.20;37.41;99823.81;4990655;28;20543;-66
2021/07/05 12:17:57;;;;;;;0.20;0.20;;;;;;;28.12;37.21;99810.53;4989272;28;20056;-66
2021/07/05 12:20:43;;;;;;;;;;;;;;;28.07;37.28;99821.06;4990006;28;20101;-67
2021/07/05 12:23:36;;;;;;;0.05;0.05;;;;;;;28.05;37.42;99823.06;5017084;28;19922;-66
2021/07/05 12:26:22;;;;;;;0.10;0.10;;;;;;;28.07;37.28;99821.91;4990247;28;20134;-67
2021/07/05 12:29:16;;;;;;;0.10;0.10;;;;;;;28.08;36.94;99811.97;4990444;28;20097;-66
2021/07/05 12:32:07;;;;;;;0.10;0.10;;;;;;;28.11;36.32;99811.59;4989357;28;20050;-65
2021/07/05 12:34:59;;;;;;;0.10;0.10;;;;;;;28.16;37.11;99830.63;4990230;28;20078;-66
2021/07/05 12:37:50;;;;;;;0.00;0.00;;;;;;;28.14;36.54;99801.25;4989980;28;20077;-67
2021/07/05 12:40:36;;;;;;;0.10;0.10;;;;;;;28.21;36.65;99801.28;4990108;28;20415;-66
2021/07/05 12:43:23;;;;;;;0.10;0.10;;;;;;;28.22;36.26;99797.59;5016149;28;20049;-67
2021/07/05 12:46:08;;;;;;;0.13;0.13;;;;;;;28.27;36.49;99816.63;4990174;28;20432;-66
2021/07/05 12:48:54;;;;;;;0.10;0.10;;;;;;;28.23;36.66;99831.47;4989969;28;20132;-68
2021/07/05 12:51:41;;;;;;;0.10;0.10;;;;;;;28.11;36.92;99811.59;4988996;28;20608;-67
2021/07/05 12:54:28;;;;;;;0.00;0.00;;;;;;;28.17;36.72;99827.75;4989888;28;20067;-66
2021/07/05 12:57:16;;;;;;;0.00;0.00;;;;;;;28.17;37.07;99826.91;4989864;28;20050;-66
2021/07/05 13:00:05;;;;;;;0.10;0.10;;;;;;;28.13;36.91;99809.53;4989797;28;20128;-67
2021/07/05 13:02:52;;;;;;;0.10;0.10;;;;;;;28.16;37.13;99809.13;4989876;28;20141;-67
2021/07/05 13:05:39;;;;;;;0.00;0.00;;;;;;;28.12;37.01;99823.97;4990188;28;20060;-66
2021/07/05 13:08:30;;;;;;;0.00;0.00;;;;;;;28.16;36.77;99793.84;4988766;28;20536;-67
2021/07/05 13:11:16;;;;;;;0.00;0.00;;;;;;;28.02;36.84;99792.06;4988959;28;20046;-66
2021/07/05 13:14:04;;;;;;;0.00;0.00;;;;;;;28.11;36.93;99806.22;4989957;28;20086;-66
2021/07/05 13:17:08;;;;;;;0.30;0.25;;;;;;;28.11;37.09;99803.53;4988777;28;20468;-66
2021/07/05 13:19:54;;;;;;;0.10;0.10;;;;;;;28.14;37.29;99808.50;4989709;28;20104;-65
2021/07/05 13:22:54;;;;;;;0.00;0.00;;;;;;;28.13;37.22;99809.53;4975748;28;20066;-68
2021/07/05 13:25:54;;;;;;;0.10;0.10;;;;;;;28.07;37.41;99799.59;5019580;28;20100;-69
2021/07/05 13:28:50;;;;;;;0.10;0.10;;;;;;;28.06;37.50;99812.19;4993734;28;20063;-68
2021/07/05 13:31:37;;;;;;;0.10;0.10;;;;;;;28.07;37.07;99799.59;4993321;28;20097;-69
2021/07/05 13:34:42;;;;;;;0.03;0.03;;;;;;;28.09;37.33;99792.16;4993375;28;20050;-68
2021/07/05 13:37:35;;;;;;;0.00;0.00;;;;;;;28.00;37.46;99798.69;4992915;28;20089;-68
2021/07/05 13:40:21;;;;;;;0.03;0.03;;;;;;;28.06;36.89;99798.75;4992335;28;20057;-68
2021/07/05 13:43:08;;;;;;;0.10;0.10;;;;;;;28.05;37.51;99807.78;4993319;28;20042;-68
2021/07/05 13:45:55;;;;;;;0.20;0.20;;;;;;;28.06;37.43;99814.03;4992277;28;20050;-69
2021/07/05 13:48:41;;;;;;;0.20;0.20;;;;;;;28.05;37.09;99796.22;4993173;28;20050;-69
2021/07/05 13:51:36;;;;;;;0.10;0.10;;;;;;;28.02;36.87;99797.44;4993094;28;20046;-69
2021/07/05 13:54:29;;;;;;;0.47;0.20;;;;;;;28.04;37.06;99790.03;4991692;28;20462;-68
2021/07/05 13:57:21;;;;;;;0.10;0.10;;;;;;;28.00;37.47;99791.47;4992934;28;20054;-67
2021/07/05 14:00:07;;;;;;;0.10;0.10;;;;;;;27.99;36.98;99805.06;4992994;28;20421;-68
2021/07/05 14:02:54;;;;;;;0.10;0.10;;;;;;;28.02;37.02;99802.81;4991817;28;20405;-68
2021/07/05 14:05:40;;;;;;;0.10;0.10;;;;;;;28.03;37.05;99803.66;4992566;28;20097;-68
2021/07/05 14:08:27;;;;;;;0.10;0.10;;;;;;;28.07;36.46;99804.97;4992342;28;20034;-68
2021/07/05 14:11:16;;;;;;;0.10;0.10;;;;;;;28.03;37.05;99809.03;4992734;28;20041;-69
2021/07/05 14:14:02;;;;;;;0.10;0.10;;;;;;;28.03;36.56;99815.22;4992675;28;20050;-69
2021/07/05 14:16:47;;;;;;;0.30;0.30;;;;;;;28.03;36.68;99815.22;4992592;28;20082;-68
2021/07/05 14:19:33;;;;;;;0.10;0.10;;;;;;;28.04;36.91;99800.78;4992360;28;20185;-68
2021/07/05 14:22:19;;;;;;;0.03;0.03;;;;;;;28.02;36.86;99818.94;4992304;28;20049;-67
2021/07/05 14:25:07;;;;;;;0.10;0.10;;;;;;;28.01;36.59;99816.47;4992394;28;20100;-68
2021/07/05 14:27:52;;;;;;;0.10;0.10;;;;;;;28.00;35.87;99796.00;4992256;28;20050;-68
2021/07/05 14:30:38;;;;;;;0.10;0.10;;;;;;;27.98;36.38;99798.06;4991984;28;20109;-67
2021/07/05 14:33:25;;;;;;;0.10;0.10;;;;;;;27.94;36.43;99803.78;4977578;28;20146;-67
2021/07/05 14:36:11;;;;;;;0.10;0.10;;;;;;;27.92;35.97;99796.97;4992118;28;20184;-68
2021/07/05 14:38:58;;;;;;;0.20;0.20;;;;;;;27.95;36.15;99813.50;4991980;28;20058;-68
2021/07/05 14:41:44;;;;;;;0.10;0.10;;;;;;;27.98;35.69;99795.38;4991324;28;20046;-67
2021/07/05 14:44:30;;;;;;;0.10;0.10;;;;;;;28.01;36.42;99813.78;4991954;28;20042;-68
2021/07/05 14:47:16;;;;;;;0.10;0.10;;;;;;;28.03;36.06;99817.06;4992547;28;20053;-68
2021/07/05 14:50:03;;;;;;;0.10;0.10;;;;;;;28.03;36.25;99817.06;4992381;28;20042;-68
2021/07/05 14:52:49;;;;;;;0.10;0.10;;;;;;;28.02;36.00;99810.03;4992034;28;20050;-68
2021/07/05 14:55:35;;;;;;;0.10;0.10;;;;;;;28.04;36.40;99810.69;4991561;28;20108;-67
2021/07/05 14:58:21;;;;;;;0.20;0.20;;;;;;;28.04;36.17;99816.06;5017547;28;20061;-68
2021/07/05 15:01:07;;;;;;;0.10;0.10;;;;;;;28.05;36.51;99807.78;4990683;28;20046;-68
2021/07/05 15:03:53;;;;;;;0.10;0.10;;;;;;;28.01;36.10;99813.78;4991559;28;20427;-68
2021/07/05 15:06:39;;;;;;;0.00;0.00;;;;;;;27.98;36.52;99822.22;4991406;28;20054;-68
2021/07/05 15:09:25;;;;;;;0.08;0.08;;;;;;;27.91;36.27;99817.59;4991141;28;20034;-67
2021/07/05 15:12:11;;;;;;;0.10;0.10;;;;;;;27.88;36.88;99828.75;4990426;28;20050;-66
2021/07/05 15:14:57;;;;;;;0.10;0.10;;;;;;;27.80;36.86;99815.50;4991121;28;20057;-65
2021/07/05 15:17:43;;;;;;;0.00;0.00;;;;;;;27.78;36.89;99825.56;4991145;28;20620;-66
2021/07/05 15:32:07;;;;;;;0.10;0.10;;;;;;;27.72;36.41;99794.16;5148105;27;20784;-66
2021/07/05 15:34:34;;;;;;;0.10;0.10;;;;;;;27.90;36.37;99818.66;5147975;27;20088;-66
2021/07/05 15:37:00;;;;;;;0.40;0.17;;;;;;;27.92;36.36;99818.44;5148162;27;20060;-65
2021/07/05 15:39:28;;;;;;;0.10;0.10;;;;;;;27.87;36.09;99802.94;5147859;27;20049;-67
2021/07/05 15:41:55;;;;;;;0.00;0.00;;;;;;;27.84;36.38;99822.13;5146662;27;20043;-66
2021/07/05 15:44:21;;;;;;;0.10;0.10;;;;;;;27.76;36.26;99830.31;5147866;27;20031;-66
2021/07/05 15:46:47;;;;;;;0.00;0.00;;;;;;;27.71;36.93;99830.09;5148069;27;20071;-65
2021/07/05 15:49:13;;;;;;;0.10;0.10;;;;;;;27.70;36.84;99831.09;5148105;27;20043;-65
2021/07/05 15:51:39;;;;;;;0.10;0.10;;;;;;;27.66;36.81;99819.09;5146314;27;20043;-67
2021/07/05 15:54:05;;;;;;;0.10;0.10;;;;;;;27.67;36.88;99822.59;5148119;27;20039;-65
2021/07/05 15:56:31;;;;;;;0.15;0.15;;;;;;;27.55;36.51;99808.06;5147461;27;20043;-65
2021/07/05 15:58:57;;;;;;;0.00;0.00;;;;;;;27.61;36.67;99821.53;5147813;27;20448;-64
2021/07/05 16:01:23;;;;;;;2.15;0.35;;;;;;;27.57;36.84;99822.13;5147239;27;20113;-67
2021/07/05 16:03:49;;;;;;;0.40;0.40;;;;;;;27.57;36.70;99828.31;5147558;27;20035;-66
2021/07/05 16:06:15;;;;;;;0.00;0.00;;;;;;;27.57;36.50;99820.25;5147469;27;20497;-65
2021/07/05 16:08:41;;;;;;;0.00;0.00;;;;;;;27.52;36.59;99817.31;5147076;27;20483;-65
2021/07/05 16:11:07;;;;;;;0.10;0.10;;;;;;;27.51;36.67;99810.31;5147480;27;20054;-66
2021/07/05 16:13:33;;;;;;;0.10;0.10;;;;;;;27.49;37.03;99817.72;5147191;27;20035;-66
2021/07/05 16:15:59;;;;;;;0.10;0.10;;;;;;;27.47;37.15;99819.75;5147324;27;20413;-65
2021/07/05 16:18:25;;;;;;;0.40;0.40;;;;;;;27.49;36.81;99815.03;5147181;27;20077;-67
2021/07/05 16:20:51;;;;;;;0.10;0.10;;;;;;;27.47;37.16;99822.44;5146954;27;20077;-65
2021/07/05 16:23:17;;;;;;;0.10;0.10;;;;;;;27.45;36.88;99808.41;5147198;27;20585;-65
2021/07/05 16:25:43;;;;;;;0.10;0.10;;;;;;;27.47;37.02;99813.56;5146974;27;20070;-65
2021/07/05 16:28:09;;;;;;;0.10;0.10;;;;;;;27.47;36.92;99814.41;5147156;27;20035;-65
2021/07/05 16:30:38;;;;;;;0.00;0.00;;;;;;;27.42;37.12;99809.56;5146713;27;20055;-65
2021/07/05 16:33:05;;;;;;;0.10;0.10;;;;;;;27.42;37.39;99816.81;5131780;27;20066;-66
2021/07/05 16:35:51;;;;;;;0.10;0.10;;;;;;;27.34;37.36;99808.88;5132868;27;20497;-66
2021/07/05 16:38:37;;;;;;;0.10;0.10;;;;;;;27.43;37.27;99823.81;5132790;27;20047;-65
2021/07/05 16:41:23;;;;;;;0.22;0.22;;;;;;;27.36;37.37;99818.41;5132644;27;20111;-66
2021/07/05 16:44:08;;;;;;;0.10;0.10;;;;;;;27.38;37.61;99819.06;5103647;27;20068;-64
2021/07/05 16:46:54;;;;;;;0.10;0.10;;;;;;;27.31;37.24;99828.88;5132660;27;20134;-64
2021/07/05 16:49:43;;;;;;;0.10;0.10;;;;;;;27.30;37.54;99829.91;5132817;27;20051;-65
2021/07/05 16:52:29;;;;;;;0.10;0.10;;;;;;;27.26;37.69;99831.28;5131481;27;20047;-67
2021/07/05 16:55:16;;;;;;;0.10;0.10;;;;;;;27.21;37.70;99831.06;5132898;27;20402;-66
2021/07/05 16:58:02;;;;;;;0.10;0.10;;;;;;;27.21;37.51;99835.59;5131635;27;20540;-67
2021/07/05 17:00:48;;;;;;;0.10;0.10;;;;;;;27.18;37.62;99838.66;5132558;27;20484;-66
2021/07/05 17:03:41;;;;;;;0.10;0.10;;;;;;;27.17;37.68;99839.66;5131234;27;20556;-65
2021/07/05 17:06:32;;;;;;;0.10;0.10;;;;;;;27.15;37.65;99847.06;5131503;27;20031;-66
2021/07/05 17:09:18;;;;;;;0.10;0.10;;;;;;;27.08;37.64;99835.44;5131674;27;20130;-64
2021/07/05 17:12:04;;;;;;;0.10;0.10;;;;;;;27.02;37.65;99836.22;5132335;27;20620;-67
2021/07/05 17:14:50;;;;;;;0.10;0.10;;;;;;;27.02;37.84;99836.22;5132561;27;20087;-62
2021/07/05 17:17:36;;;;;;;0.10;0.10;;;;;;;27.05;37.97;99851.91;5132244;27;20108;-67
2021/07/05 17:20:21;;;;;;;0.30;0.17;;;;;;;26.99;38.04;99847.31;5132560;27;20104;-70
2021/07/05 17:23:07;;;;;;;0.10;0.10;;;;;;;26.99;37.83;99848.16;5131613;27;20043;-71
2021/07/05 17:25:53;;;;;;;0.10;0.10;;;;;;;26.97;38.15;99860.91;5132357;27;20527;-68
2021/07/05 17:28:39;;;;;;;0.00;0.00;;;;;;;26.95;37.96;99856.75;5132247;27;20099;-68
2021/07/05 17:31:25;;;;;;;0.10;0.10;;;;;;;26.88;38.13;99852.16;5131719;27;20069;-63
2021/07/05 17:34:12;;;;;;;0.10;0.10;;;;;;;26.87;38.25;99861.19;5132213;27;20043;-62
2021/07/05 17:36:58;;;;;;;0.00;0.00;;;;;;;26.80;38.33;99854.91;5131837;27;20630;-62
2021/07/05 17:39:46;;;;;;;0.03;0.03;;;;;;;26.84;38.43;99860.75;5130532;27;20542;-63
2021/07/05 17:42:13;;;;;;;0.10;0.10;;;;;;;26.75;38.12;99856.47;5132024;27;20043;-64
2021/07/05 17:44:40;;;;;;;0.10;0.10;;;;;;;26.78;38.44;99861.47;5130936;27;20400;-64
2021/07/05 17:47:08;;;;;;;0.10;0.10;;;;;;;26.73;38.20;99875.41;5130456;27;20528;-64
2021/07/05 17:49:34;;;;;;;0.30;0.30;;;;;;;26.71;38.35;99877.47;5131640;27;20043;-64
2021/07/05 17:52:00;;;;;;;0.08;0.08;;;;;;;26.65;38.36;99859.47;5131873;27;20067;-67
2021/07/05 17:54:27;;;;;;;0.10;0.10;;;;;;;26.67;38.62;99870.81;5131673;27;20053;-65
2021/07/05 17:56:57;;;;;;;0.00;0.00;;;;;;;26.60;38.69;99858.38;5130576;27;20031;-64
2021/07/05 17:59:27;;;;;;;;;;;;;;;26.61;38.49;99866.22;5131112;27;20039;-65
2021/07/05 18:01:58;;;;;;;0.10;0.10;;;;;;;26.60;38.68;99863.72;5131766;27;19920;-65
2021/07/05 18:04:28;;;;;;;0.00;0.00;;;;;;;26.50;38.55;99861.34;5130411;27;20125;-66
2021/07/05 18:06:55;;;;;;;0.00;0.00;;;;;;;26.55;38.80;99864.28;5131604;27;20469;-64
2021/07/05 18:09:24;;;;;;;0.10;0.10;;;;;;;26.53;38.75;99868.16;5131485;27;20125;-66
2021/07/05 18:11:51;;;;;;;0.10;0.10;;;;;;;26.51;38.75;99868.34;5131076;27;20066;-66
2021/07/05 18:14:17;;;;;;;0.10;0.10;;;;;;;26.46;38.77;99862.72;5131371;27;20585;-66
2021/07/05 18:16:43;;;;;;;0.00;0.00;;;;;;;26.47;38.80;99863.56;5129616;27;20043;-64
2021/07/05 18:19:09;;;;;;;0.10;0.10;;;;;;;26.41;39.06;99863.25;5096197;27;20035;-64
2021/07/05 18:21:36;;;;;;;0.10;0.10;;;;;;;26.43;38.98;99863.09;5130990;27;20103;-63
2021/07/05 18:24:03;;;;;;;0.20;0.20;;;;;;;26.41;38.97;99865.94;5129982;27;20042;-65
2021/07/05 18:26:29;;;;;;;0.10;0.10;;;;;;;26.40;39.24;99863.47;5130986;27;20134;-65
2021/07/05 18:28:55;;;;;;;0.10;0.10;;;;;;;26.36;39.03;99870.19;5131440;27;20035;-64
2021/07/05 18:31:21;;;;;;;0.10;0.10;;;;;;;26.36;39.13;99870.19;5112423;27;20502;-65
2021/07/05 18:33:51;;;;;;;0.10;0.10;;;;;;;26.34;39.36;99870.38;5130963;27;20035;-65
2021/07/05 18:36:19;;;;;;;0.10;0.10;;;;;;;26.31;39.32;99870.75;5131353;27;20046;-64
2021/07/05 18:38:45;;;;;;;0.10;0.10;;;;;;;26.21;39.37;99859.47;5129499;27;20091;-66
2021/07/05 18:41:12;;;;;;;0.10;0.10;;;;;;;26.23;39.49;99859.31;5129524;27;20130;-66
2021/07/05 18:43:41;;;;;;;0.10;0.10;;;;;;;26.18;39.56;99853.66;5112638;27;20163;-64
2021/07/05 18:46:08;;;;;;;0.20;0.20;;;;;;;26.26;39.44;99875.84;5130792;27;20046;-65
2021/07/05 18:48:35;;;;;;;0.10;0.10;;;;;;;26.27;39.68;99874.00;5130669;27;20042;-65
2021/07/05 18:51:02;;;;;;;0.10;0.10;;;;;;;26.24;39.55;99872.50;5130712;27;20050;-64
2021/07/05 18:53:28;;;;;;;0.00;0.00;;;;;;;26.23;39.74;99883.41;5130870;27;20035;-65
2021/07/05 18:55:55;;;;;;;0.15;0.15;;;;;;;26.16;39.66;99869.91;5129173;27;20417;-65
2021/07/05 18:58:26;;;;;;;0.10;0.10;;;;;;;26.19;39.92;99879.41;5129392;27;20130;-65
2021/07/05 19:00:52;;;;;;;0.00;0.00;;;;;;;26.09;39.80;99870.78;5130538;27;20078;-62
2021/07/05 19:03:18;;;;;;;0.10;0.10;;;;;;;26.16;39.97;99880.63;5129329;27;20038;-62
2021/07/05 19:05:44;;;;;;;0.10;0.10;;;;;;;26.17;39.97;99884.13;5130404;27;20057;-62
2021/07/05 19:08:10;;;;;;;0.00;0.00;;;;;;;26.15;39.87;99886.13;5095097;27;20039;-63
2021/07/05 19:10:36;;;;;;;0.08;0.08;;;;;;;26.09;40.07;99886.84;5130281;27;20035;-63
2021/07/05 19:13:03;;;;;;;0.10;0.10;;;;;;;26.11;40.19;99887.53;5130587;27;20366;-64
2021/07/05 19:15:30;;;;;;;0.10;0.10;;;;;;;26.06;40.18;99887.22;5112481;27;20039;-63
2021/07/05 19:17:56;;;;;;;0.10;0.10;;;;;;;26.09;40.43;99898.41;5129020;27;20035;-63
2021/07/05 19:20:23;;;;;;;0.10;0.10;;;;;;;25.88;40.33;99864.31;5130307;28;20066;-63
2021/07/05 19:22:51;;;;;;;0.00;0.00;;;;;;;26.00;40.53;99888.78;5130033;27;20125;-64
2021/07/05 19:25:17;;;;;;;0.10;0.10;;;;;;;26.01;40.54;99900.34;5112236;28;20095;-62
2021/07/05 19:27:45;;;;;;;0.10;0.10;;;;;;;26.02;40.54;99902.81;5130254;27;20031;-67
2021/07/05 19:30:13;;;;;;;0.20;0.20;;;;;;;25.99;40.45;99902.34;5129077;28;20253;-67
2021/07/05 19:32:39;;;;;;;0.00;0.00;;;;;;;25.97;40.53;99899.84;5130114;28;20035;-67
2021/07/05 19:35:06;;;;;;;0.00;0.00;;;;;;;25.97;40.70;99904.38;5130370;28;20122;-67
2021/07/05 19:37:35;;;;;;;0.10;0.10;;;;;;;25.87;40.80;99892.09;5129927;27;20593;-66
2021/07/05 19:40:03;;;;;;;0.10;0.10;;;;;;;25.90;40.80;99896.25;5130279;27;20390;-66
2021/07/05 19:42:29;;;;;;;0.10;0.10;;;;;;;25.89;40.91;99906.09;5111989;28;20039;-67
2021/07/05 19:44:55;;;;;;;0.10;0.10;;;;;;;25.85;41.02;99904.81;5128670;28;20031;-65
2021/07/05 19:47:21;;;;;;;0.10;0.10;;;;;;;25.86;40.89;99911.00;5130221;28;20035;-64
2021/07/05 19:49:47;;;;;;;0.00;0.00;;;;;;;25.69;41.19;99886.22;5130217;27;20421;-64
2021/07/05 19:52:14;;;;;;;0.10;0.10;;;;;;;25.81;41.05;99913.38;5129021;28;20181;-64
2021/07/05 19:54:39;;;;;;;0.10;0.10;;;;;;;25.77;41.12;99907.56;5129971;28;20117;-64
2021/07/05 19:57:06;;;;;;;0.10;0.10;;;;;;;25.75;41.15;99901.53;5130178;28;20044;-64
2021/07/05 19:59:32;;;;;;;0.05;0.05;;;;;;;25.75;41.21;99906.88;5128933;28;20140;-64
2021/07/05 20:01:58;;;;;;;0.10;0.10;;;;;;;25.73;41.19;99903.56;5130005;27;20580;-64
2021/07/05 20:04:24;;;;;;;0.10;0.10;;;;;;;25.72;41.24;99909.94;5130067;28;20039;-63
2021/07/05 20:06:51;;;;;;;0.10;0.10;;;;;;;25.69;41.28;99909.47;5130911;27;20031;-65
2021/07/05 20:09:17;;;;;;;0.10;0.10;;;;;;;25.68;41.26;99911.31;5133973;27;20039;-64
2021/07/05 20:11:43;;;;;;;0.73;0.73;;;;;;;25.68;41.25;99911.31;5133716;27;20039;-64
2021/07/05 20:14:09;;;;;;;0.10;0.10;;;;;;;25.64;41.29;99910.00;5133923;27;20042;-63
2021/07/05 20:16:35;;;;;;;0.05;0.05;;;;;;;25.63;41.24;99904.81;5133574;27;20071;-66
2021/07/05 20:19:01;;;;;;;0.10;0.10;;;;;;;25.68;41.24;99902.47;5133687;27;20084;-65
2021/07/05 20:21:27;;;;;;;0.20;0.20;;;;;;;25.62;41.27;99893.28;5132260;27;20039;-64
2021/07/05 20:23:54;;;;;;;0.10;0.10;;;;;;;25.64;41.12;99909.19;5133466;27;20039;-64
2021/07/05 20:26:19;;;;;;;0.10;0.10;;;;;;;25.62;41.22;99911.22;5133609;27;20042;-64
2021/07/05 20:28:46;;;;;;;0.20;0.20;;;;;;;25.59;41.25;99914.25;5133343;27;20042;-64
2021/07/05 20:31:12;;;;;;;0.10;0.10;;;;;;;25.58;41.32;99913.41;5133560;27;20549;-64
2021/07/05 20:33:40;;;;;;;0.10;0.10;;;;;;;25.56;41.33;99912.75;5132017;27;20047;-65
2021/07/05 20:36:07;;;;;;;0.00;0.00;;;;;;;25.53;41.41;99915.78;5133762;27;20050;-64
2021/07/05 20:38:33;;;;;;;0.35;0.20;;;;;;;25.51;41.38;99915.13;5133358;27;20039;-64
2021/07/05 20:41:00;;;;;;;0.17;0.17;;;;;;;25.50;41.45;99913.44;5131878;27;20043;-66
2021/07/05 20:43:26;;;;;;;0.13;0.13;;;;;;;25.48;41.55;99920.81;5132127;27;20068;-66
2021/07/05 20:45:56;;;;;;;0.10;0.10;;;;;;;25.48;41.49;99919.97;5133324;27;20497;-66
2021/07/05 20:48:23;;;;;;;0.10;0.10;;;;;;;25.46;41.45;99928.16;5132174;27;20051;-65
2021/07/05 20:50:53;;;;;;;0.10;0.10;;;;;;;25.46;41.60;99924.66;5131747;27;20043;-66
2021/07/05 20:53:19;;;;;;;0.30;0.30;;;;;;;25.38;41.52;99910.34;5133069;27;20046;-66
2021/07/05 20:55:46;;;;;;;0.10;0.10;;;;;;;25.44;41.58;99930.19;5131573;27;20035;-66
2021/07/05 20:58:12;;;;;;;0.22;0.22;;;;;;;25.34;41.57;99908.19;5133065;27;20047;-66
2021/07/05 21:00:38;;;;;;;0.20;0.20;;;;;;;25.38;41.58;99915.69;5132767;27;20053;-66
2021/07/05 21:03:04;;;;;;;0.30;0.30;;;;;;;25.42;41.60;99926.88;5132983;27;20031;-65